AirNav   Everest Fuels
 
 931 users online  

AZ54 Stewart Mountain Dam Heliport
Goldfield, Arizona, USA

GOING TO GOLDFIELD?


FAA INFORMATION EFFECTIVE 08 SEPTEMBER 2022

Location

FAA Identifier: AZ54
Lat/Long: 33-33-08.1630N 111-32-56.4830W
33-33.136050N 111-32.941383W
33.5522675,-111.5490231
(estimated)
Elevation: 1530 ft. / 466 m (estimated)
Variation: 13E (1985)
From city: 7 miles NW of GOLDFIELD, AZ
Time zone: UTC -7 (year round; does not observe DST)
Zip code: 85215

Heliport Operations

Heliport use: Private use. Permission required prior to landing
Activation date: 09/1982
Control tower: no
ARTCC: ALBUQUERQUE CENTER
FSS: PRESCOTT FLIGHT SERVICE STATION
Attendance: UNATNDD
Wind indicator: lighted
Segmented circle: no
Lights: SS-SR

Heliport Communications

WX ASOS at FFZ (11 nm SW): PHONE 480-641-4111
WX AWOS-3 at IWA (16 nm S): 133.5 (480-988-9428)
WX ASOS at SDL (19 nm W): PHONE 480-483-3049

Nearby radio navigation aids

VOR radial/distance  VOR name  Freq  Var
IWAr006/15.8WILLIE VORTAC113.3013E
PXRr059/22.3PHOENIX VORTAC115.6012E

Heliport Services

Runway Information

Helipad H1

Dimensions: 20 x 20 ft. / 6 x 6 m
Surface: concrete
Runway edge lights: PERI
Latitude: 33-33.136000N
Longitude: 111-32.941500W
Elevation: 1530.0 ft.
Traffic pattern: leftleft

Heliport Ownership and Management from official FAA records

Ownership: Privately-owned
Owner: SALT RIVER PROJECT
2601 E. AIRLANE
PHOENIX, AZ 85034
Phone 602-236-2479
Manager: JEFFREY R CAMPBELL
2601 E. AIRLANE
PHOENIX, AZ 85034
Phone 602-236-8050

Additional Remarks

A52-H1 HAS A 300' MOUNTAIN 150' WEST; 80' PLINES 150' WEST & 300' NORTH.
FOR CD CTC PHOENIX APCH AT 602-306-2565.

Instrument Procedures

There are no published instrument procedures at AZ54.

Some nearby airports with instrument procedures:

KFFZ - Falcon Field Airport (11 nm SW)
KIWA - Phoenix-Mesa Gateway Airport (16 nm S)
KSDL - Scottsdale Airport (19 nm W)
KCHD - Chandler Municipal Airport (21 nm SW)
P19 - Stellar Airpark (24 nm SW)
 
Loc | Ops | Rwys | IFR | FBO | Links
Com | Nav | Svcs | Stats | Notes
Area around AZ54 (Stewart Mountain Dam Heliport)
 
Road maps at: MapQuest Bing Google
 
Aerial photo
No photo
 
Sectional chart

 
Airport distance calculator
Flying to Stewart Mountain Dam Heliport? Find the distance to fly.

From to AZ54

Sunrise and sunset
Times for 02-Oct-2022
 Local
(UTC-7)
 Zulu
(UTC)
Morning civil twilight05:5712:57
Sunrise06:2213:22
Sunset18:0901:09
Evening civil twilight18:3401:34

Current date and time
Zulu (UTC)  02-Oct-2022 22:36:57
Local (UTC-7)  02-Oct-2022 15:36:57
 
METAR
KFFZ 
10nm SW 
022154Z AUTO 21011G17KT 10SM CLR 35/11 A2985 RMK AO2 SLP083 T03500106
KIWA 
16nm S 
022150Z 27006KT 10SM CLR 34/11 A2986
KSDL 
19nm W 
022153Z 25008KT 10SM CLR 34/11 A2987 RMK AO2 SLP088 T03390111
TAF
KIWA 
16nm S 
021720Z 0218/0318 18008KT P6SM FEW100 FEW150 FM022200 22007KT P6SM FEW100 FEW150 FM030000 26006KT P6SM FEW100 FEW150 FM030300 07005KT P6SM FEW100 SCT150 SCT250 FM030500 13008KT P6SM FEW100 FEW150
KSDL 
19nm W 
021720Z 0218/0318 VRB04KT P6SM FEW100 FEW150 FM022100 21007KT P6SM FEW100 FEW150 FM030300 04005KT P6SM FEW100 SCT150 SCT250 FM030800 VRB03KT P6SM FEW100 FEW150
NOTAMs
Click for the latest NOTAMs
NOTAMs are issued by the DoD/FAA and will open in a separate window not controlled by AirNav.

 

 
 

Would you like to see your business listed on this page?

 If your business provides an interesting product or service to pilots, flight crews, aircraft, or users of the Stewart Mountain Dam Heliport, you should consider listing it here.  To start the listing process, click on the button below
 
Add a business
 

Other Pages about Stewart Mountain Dam Heliport

Update a link
 
Copyright © AirNav, LLC. All rights reserved. Privacy Policy  Contact